createdAt,value
2023-01-25T00:00:49.666Z,4.10
2023-01-25T00:03:17.769Z,4.10
2023-01-25T00:05:45.850Z,4.10
2023-01-25T00:08:13.972Z,4.00
2023-01-25T00:10:42.093Z,4.00
2023-01-25T00:13:10.052Z,4.00
2023-01-25T00:15:39.437Z,3.90
2023-01-25T00:18:07.460Z,3.90
2023-01-25T00:20:35.419Z,4.00
2023-01-25T00:23:03.426Z,4.00
2023-01-25T00:25:31.416Z,4.00
2023-01-25T00:27:59.440Z,4.10
2023-01-25T00:30:27.453Z,4.00
2023-01-25T00:33:07.154Z,4.00
2023-01-25T00:35:36.038Z,4.00
2023-01-25T00:38:07.465Z,4.00
2023-01-25T00:40:35.608Z,4.00
2023-01-25T00:43:03.600Z,3.90
2023-01-25T00:45:33.092Z,3.80
2023-01-25T00:48:02.448Z,3.80
2023-01-25T00:50:32.770Z,3.80
2023-01-25T00:53:01.919Z,3.80
2023-01-25T00:55:30.036Z,3.80
2023-01-25T00:57:58.216Z,3.80
2023-01-25T01:00:26.236Z,3.80
2023-01-25T01:02:54.237Z,3.80
2023-01-25T01:05:23.767Z,3.80
2023-01-25T01:07:51.882Z,3.80
2023-01-25T01:10:20.332Z,3.80
2023-01-25T01:12:48.309Z,3.80
2023-01-25T01:15:16.545Z,3.80
2023-01-25T01:17:44.594Z,3.80
2023-01-25T01:20:14.019Z,3.80
2023-01-25T01:22:43.336Z,3.70
2023-01-25T01:25:13.279Z,3.70
2023-01-25T01:27:41.569Z,3.70
2023-01-25T01:30:11.009Z,3.70
2023-01-25T01:32:39.866Z,3.70
2023-01-25T01:35:09.060Z,3.70
2023-01-25T01:37:38.159Z,3.70
2023-01-25T01:40:09.334Z,3.80
2023-01-25T01:42:58.763Z,3.80
2023-01-25T01:45:56.171Z,3.70
2023-01-25T01:48:37.633Z,3.70
2023-01-25T01:51:15.470Z,3.70
2023-01-25T01:53:46.356Z,3.70
2023-01-25T01:56:20.633Z,3.70
2023-01-25T01:58:54.871Z,3.70
2023-01-25T02:01:22.961Z,3.60
2023-01-25T02:03:51.702Z,3.70
2023-01-25T02:06:28.804Z,3.70
2023-01-25T02:08:57.547Z,3.70
2023-01-25T02:11:28.877Z,3.70
2023-01-25T02:13:59.194Z,3.70
2023-01-25T02:16:29.031Z,3.70
2023-01-25T02:19:02.068Z,3.70
2023-01-25T02:21:34.999Z,3.70
2023-01-25T02:24:08.681Z,3.70
2023-01-25T02:26:41.293Z,3.70
2023-01-25T02:29:11.708Z,3.70
2023-01-25T02:31:39.809Z,3.70
2023-01-25T02:34:07.925Z,3.70
2023-01-25T02:36:36.988Z,3.60
2023-01-25T02:39:08.548Z,3.70
2023-01-25T02:41:39.924Z,3.70
2023-01-25T02:44:13.485Z,3.70
2023-01-25T02:46:44.946Z,3.70
2023-01-25T02:49:13.994Z,3.70
2023-01-25T02:51:45.051Z,3.70
2023-01-25T02:54:14.992Z,3.70
2023-01-25T02:56:43.152Z,3.80
2023-01-25T02:59:13.704Z,3.70
2023-01-25T03:01:46.940Z,3.70
2023-01-25T03:04:15.806Z,3.70
2023-01-25T03:06:44.282Z,3.70
2023-01-25T03:09:13.563Z,3.70
2023-01-25T03:11:46.179Z,3.60
2023-01-25T03:14:15.705Z,3.60
2023-01-25T03:16:44.811Z,3.60
2023-01-25T03:19:13.287Z,3.60
2023-01-25T03:21:42.161Z,3.60
2023-01-25T03:24:11.555Z,3.50
2023-01-25T03:27:02.754Z,3.50
2023-01-25T03:29:41.215Z,3.40
2023-01-25T03:32:14.658Z,3.40
2023-01-25T03:34:43.103Z,3.50
2023-01-25T03:37:11.689Z,3.50
2023-01-25T03:39:41.557Z,3.50
2023-01-25T03:42:10.625Z,3.50
2023-01-25T03:44:39.989Z,3.50
2023-01-25T03:47:08.066Z,3.50
2023-01-25T03:49:36.426Z,3.50
2023-01-25T03:52:06.954Z,3.50
2023-01-25T03:54:39.074Z,3.50
2023-01-25T03:57:09.283Z,3.60
2023-01-25T03:59:48.841Z,3.60
2023-01-25T04:02:17.038Z,3.60
2023-01-25T04:04:45.112Z,3.60
2023-01-25T04:07:14.539Z,3.60
2023-01-25T04:09:44.405Z,3.50
2023-01-25T04:12:13.513Z,3.40
2023-01-25T04:14:44.805Z,3.40
2023-01-25T04:17:20.664Z,3.50
2023-01-25T04:19:52.402Z,3.50
2023-01-25T04:22:24.986Z,3.40
2023-01-25T04:24:55.715Z,3.50
2023-01-25T04:27:23.902Z,3.50
2023-01-25T04:30:05.625Z,3.50
2023-01-25T04:32:38.625Z,3.50
2023-01-25T04:35:17.324Z,3.40
2023-01-25T04:37:54.464Z,3.30
2023-01-25T04:40:22.846Z,3.30
2023-01-25T04:42:51.685Z,3.30
2023-01-25T04:45:19.754Z,3.30
2023-01-25T04:47:49.365Z,3.40
2023-01-25T04:50:17.557Z,3.40
2023-01-25T04:52:47.622Z,3.50
2023-01-25T04:55:15.912Z,3.50
2023-01-25T04:57:45.278Z,3.40
2023-01-25T05:00:14.006Z,3.50
2023-01-25T05:02:42.249Z,3.40
2023-01-25T05:05:12.188Z,3.50
2023-01-25T05:07:40.641Z,3.50
2023-01-25T05:10:10.958Z,3.50
2023-01-25T05:12:45.533Z,3.50
2023-01-25T05:15:14.498Z,3.50
2023-01-25T05:17:42.544Z,3.50
2023-01-25T05:20:13.870Z,3.50
2023-01-25T05:22:42.153Z,3.60
2023-01-25T05:25:30.667Z,3.60
2023-01-25T05:27:58.030Z,3.60
2023-01-25T05:30:49.446Z,3.50
2023-01-25T05:33:27.706Z,3.30
2023-01-25T05:35:58.769Z,3.30
2023-01-25T05:38:30.672Z,3.40
2023-01-25T05:40:59.635Z,3.40
2023-01-25T05:43:27.729Z,3.40
2023-01-25T05:45:55.913Z,3.40
2023-01-25T05:48:25.095Z,3.30
2023-01-25T05:50:59.985Z,3.30
2023-01-25T05:53:29.889Z,3.40
2023-01-25T05:55:58.254Z,3.40
2023-01-25T05:58:26.756Z,3.40
2023-01-25T06:00:54.859Z,3.50
2023-01-25T06:03:34.484Z,3.50
2023-01-25T06:06:04.781Z,3.40
2023-01-25T06:08:36.361Z,3.30
2023-01-25T06:11:07.978Z,3.30
2023-01-25T06:13:36.903Z,3.30
2023-01-25T06:16:06.154Z,3.30
2023-01-25T06:18:43.817Z,3.30
2023-01-25T06:21:37.516Z,3.50
2023-01-25T06:24:05.852Z,3.50
2023-01-25T06:26:33.955Z,3.40
2023-01-25T06:29:01.926Z,3.40
2023-01-25T06:31:30.071Z,3.40
2023-01-25T06:34:01.165Z,3.40
2023-01-25T06:36:29.528Z,3.30
2023-01-25T06:38:58.952Z,3.20
2023-01-25T06:41:27.087Z,3.20
2023-01-25T06:43:56.396Z,3.10
2023-01-25T06:46:24.835Z,3.10
2023-01-25T06:48:53.118Z,3.10
2023-01-25T06:51:21.123Z,3.10
2023-01-25T06:53:49.086Z,3.20
2023-01-25T06:56:20.750Z,3.20
2023-01-25T06:58:49.329Z,3.30
2023-01-25T07:01:20.139Z,3.40
2023-01-25T07:03:49.831Z,3.30
2023-01-25T07:06:18.169Z,3.30
2023-01-25T07:08:46.562Z,3.30
2023-01-25T07:11:15.185Z,3.30
2023-01-25T07:13:46.796Z,3.40
2023-01-25T07:16:16.949Z,3.40
2023-01-25T07:18:45.185Z,3.40
2023-01-25T07:21:17.681Z,3.40
2023-01-25T07:23:46.369Z,3.40
2023-01-25T07:26:18.484Z,3.40
2023-01-25T07:28:48.220Z,3.40
2023-01-25T07:31:17.091Z,3.30
2023-01-25T07:33:48.481Z,3.20
2023-01-25T07:36:16.905Z,3.30
2023-01-25T07:38:44.889Z,3.30
2023-01-25T07:41:13.100Z,3.30
2023-01-25T07:43:41.291Z,3.30
2023-01-25T07:46:14.598Z,3.30
2023-01-25T07:48:47.577Z,3.40
2023-01-25T07:51:27.016Z,3.30
2023-01-25T07:53:56.466Z,3.30
2023-01-25T07:56:26.328Z,3.30
2023-01-25T07:58:55.157Z,3.30
2023-01-25T08:01:27.079Z,3.30
2023-01-25T08:03:57.225Z,3.30
2023-01-25T08:06:27.410Z,3.20
2023-01-25T08:08:55.889Z,3.20
2023-01-25T08:11:26.194Z,3.30
2023-01-25T08:13:54.437Z,3.30
2023-01-25T08:16:25.348Z,3.30
2023-01-25T08:18:55.690Z,3.30
2023-01-25T08:21:25.495Z,3.40
2023-01-25T08:23:53.597Z,3.40
2023-01-25T08:26:22.098Z,3.40
2023-01-25T08:28:50.090Z,3.40
2023-01-25T08:31:20.210Z,3.30
2023-01-25T08:33:51.186Z,3.30
2023-01-25T08:36:20.197Z,3.40
2023-01-25T08:38:48.949Z,3.50
2023-01-25T08:41:19.511Z,3.50
2023-01-25T08:43:48.119Z,3.50
2023-01-25T08:46:17.846Z,3.50
2023-01-25T08:48:45.957Z,3.50
2023-01-25T08:51:16.577Z,3.50
2023-01-25T08:53:44.815Z,3.50
2023-01-25T08:56:14.698Z,3.50
2023-01-25T08:58:44.825Z,3.50
2023-01-25T09:01:15.725Z,3.40
2023-01-25T09:03:44.910Z,3.40
2023-01-25T09:06:15.103Z,3.40
2023-01-25T09:08:43.164Z,3.40
2023-01-25T09:11:13.164Z,3.40
2023-01-25T09:13:43.633Z,3.40
2023-01-25T09:16:13.566Z,3.30
2023-01-25T09:18:43.188Z,3.30
2023-01-25T09:21:13.268Z,3.20
2023-01-25T09:23:57.382Z,3.20
2023-01-25T09:26:32.957Z,3.30
2023-01-25T09:29:01.059Z,3.30
2023-01-25T09:31:29.411Z,3.30
2023-01-25T09:34:03.553Z,3.30
2023-01-25T09:36:31.613Z,3.20
2023-01-25T09:39:01.274Z,3.10
2023-01-25T09:42:06.491Z,3.20
2023-01-25T09:44:53.441Z,3.20
2023-01-25T09:47:28.771Z,3.10
2023-01-25T09:50:22.516Z,3.20
2023-01-25T09:53:17.169Z,3.20
2023-01-25T09:55:54.199Z,3.30
2023-01-25T09:58:27.440Z,3.30
2023-01-25T10:01:15.088Z,3.40
2023-01-25T10:03:51.281Z,3.30
2023-01-25T10:06:23.347Z,3.30
2023-01-25T10:08:59.948Z,3.30
2023-01-25T10:11:31.715Z,3.20
2023-01-25T10:14:00.869Z,3.20
2023-01-25T10:16:37.808Z,3.30
2023-01-25T10:19:15.697Z,3.30
2023-01-25T10:21:48.237Z,3.40
2023-01-25T10:24:55.283Z,3.40
2023-01-25T10:27:35.378Z,3.30
2023-01-25T10:30:21.780Z,3.30
2023-01-25T10:32:56.052Z,3.20
2023-01-25T10:35:35.710Z,3.30
2023-01-25T10:38:12.528Z,3.30
2023-01-25T10:40:45.793Z,3.30
2023-01-25T10:43:19.155Z,3.30
2023-01-25T10:45:48.154Z,3.30
2023-01-25T10:48:20.673Z,3.20
2023-01-25T10:50:54.501Z,3.30
2023-01-25T10:53:30.115Z,3.30
2023-01-25T10:56:22.154Z,3.30
2023-01-25T10:58:54.398Z,3.30
2023-01-25T11:01:28.749Z,3.40
2023-01-25T11:03:57.005Z,3.40
2023-01-25T11:06:34.288Z,3.40
2023-01-25T11:09:02.951Z,3.50
2023-01-25T11:11:36.887Z,3.50
2023-01-25T11:14:17.476Z,3.50
2023-01-25T11:16:48.854Z,3.50
2023-01-25T11:19:29.431Z,3.60
2023-01-25T11:21:59.177Z,3.50
2023-01-25T11:24:28.769Z,3.50
2023-01-25T11:27:19.395Z,3.40
2023-01-25T11:30:09.698Z,3.30
2023-01-25T11:32:40.740Z,3.30
2023-01-25T11:35:14.841Z,3.30
2023-01-25T11:38:03.080Z,3.30
2023-01-25T11:40:38.405Z,3.30
2023-01-25T11:43:28.896Z,3.30
2023-01-25T11:46:28.186Z,3.30
2023-01-25T11:49:12.669Z,3.30
2023-01-25T11:51:48.924Z,3.30
2023-01-25T11:54:46.813Z,3.30
2023-01-25T11:57:45.172Z,3.30
2023-01-25T12:00:36.121Z,3.30
2023-01-25T12:03:36.279Z,3.40
2023-01-25T12:06:14.578Z,3.50
2023-01-25T12:08:58.333Z,3.40
2023-01-25T12:11:37.877Z,3.40
2023-01-25T12:14:12.248Z,3.40
2023-01-25T12:16:58.435Z,3.40
2023-01-25T12:19:45.743Z,3.40
2023-01-25T12:22:36.367Z,3.50
2023-01-25T12:25:14.769Z,3.50
2023-01-25T12:27:53.460Z,3.60
2023-01-25T12:30:27.075Z,3.60
2023-01-25T12:33:09.018Z,3.50
2023-01-25T12:35:47.437Z,3.50
2023-01-25T12:38:20.673Z,3.60
2023-01-25T12:40:54.616Z,3.60
2023-01-25T12:43:27.463Z,3.60
2023-01-25T12:45:56.860Z,3.60
2023-01-25T12:48:29.932Z,3.60
2023-01-25T12:51:00.672Z,3.70
2023-01-25T12:53:34.349Z,3.70
2023-01-25T12:56:02.962Z,3.70
2023-01-25T12:58:40.045Z,3.70
2023-01-25T13:01:17.506Z,3.70
2023-01-25T13:04:01.943Z,3.70
2023-01-25T13:06:39.608Z,3.60
2023-01-25T13:09:15.024Z,3.60
2023-01-25T13:11:44.540Z,3.70
2023-01-25T13:14:30.235Z,3.70
2023-01-25T13:17:13.585Z,3.70
2023-01-25T13:19:43.248Z,3.70
2023-01-25T13:22:13.677Z,3.70
2023-01-25T13:25:11.069Z,3.70
2023-01-25T13:27:39.411Z,3.60
2023-01-25T13:30:32.757Z,3.60
2023-01-25T13:33:03.390Z,3.60
2023-01-25T13:35:45.557Z,3.60
2023-01-25T13:38:30.830Z,3.60
2023-01-25T13:41:15.395Z,3.60
2023-01-25T13:43:46.021Z,3.60
2023-01-25T13:46:18.795Z,3.60
2023-01-25T13:48:58.954Z,3.70
2023-01-25T13:51:31.226Z,3.70
2023-01-25T13:54:01.405Z,3.80
2023-01-25T13:56:32.522Z,3.80
2023-01-25T13:59:01.021Z,3.80
2023-01-25T14:01:31.973Z,3.80
2023-01-25T14:04:03.457Z,3.70
2023-01-25T14:06:33.953Z,3.70
2023-01-25T14:09:09.669Z,3.70
2023-01-25T14:11:44.517Z,3.70
2023-01-25T14:14:21.799Z,3.70
2023-01-25T14:17:10.959Z,3.70
2023-01-25T14:19:41.164Z,3.70
2023-01-25T14:22:14.633Z,3.60
2023-01-25T14:24:44.077Z,3.60
2023-01-25T14:27:15.363Z,3.50
2023-01-25T14:29:48.603Z,3.60
2023-01-25T14:32:21.401Z,3.50
2023-01-25T14:34:49.527Z,3.50
2023-01-25T14:37:20.705Z,3.60
2023-01-25T14:39:52.767Z,3.60
2023-01-25T14:42:21.126Z,3.70
2023-01-25T14:44:49.476Z,3.60
2023-01-25T14:47:23.273Z,3.60
2023-01-25T14:49:51.540Z,3.60
2023-01-25T14:52:21.724Z,3.60
2023-01-25T14:54:53.426Z,3.70
2023-01-25T14:57:33.972Z,3.70
2023-01-25T15:00:04.096Z,3.80
2023-01-25T15:02:39.872Z,3.80
2023-01-25T15:05:19.279Z,3.80
2023-01-25T15:07:49.774Z,3.80
2023-01-25T15:10:22.384Z,3.70
2023-01-25T15:13:07.707Z,3.70
2023-01-25T15:15:52.492Z,3.70
2023-01-25T15:18:42.888Z,3.70
2023-01-25T15:21:12.148Z,3.70
2023-01-25T15:23:42.833Z,3.60
2023-01-25T15:26:19.511Z,3.70
2023-01-25T15:28:48.028Z,3.90
2023-01-25T15:31:18.820Z,3.90
2023-01-25T15:33:47.094Z,3.90
2023-01-25T15:36:16.989Z,3.80
2023-01-25T15:38:45.338Z,3.70
2023-01-25T15:41:15.306Z,3.60
2023-01-25T15:43:43.535Z,3.50
2023-01-25T15:46:17.604Z,3.50
2023-01-25T15:48:47.524Z,3.50
2023-01-25T15:51:15.886Z,3.50
2023-01-25T15:53:44.173Z,3.50
2023-01-25T15:56:17.825Z,3.50
2023-01-25T15:58:48.803Z,3.40
2023-01-25T16:01:17.264Z,3.40
2023-01-25T16:03:45.426Z,3.40
2023-01-25T16:06:29.553Z,3.40
2023-01-25T16:08:58.791Z,3.40
2023-01-25T16:11:28.588Z,3.40
2023-01-25T16:13:57.821Z,3.40
2023-01-25T16:16:27.014Z,3.40
2023-01-25T16:18:55.164Z,3.40
2023-01-25T16:21:23.246Z,3.50
2023-01-25T16:23:51.300Z,3.50
2023-01-25T16:26:23.843Z,3.40
2023-01-25T16:28:53.576Z,3.50
2023-01-25T16:31:32.519Z,3.60
2023-01-25T16:34:01.731Z,3.50
2023-01-25T16:36:31.374Z,3.40
2023-01-25T16:39:10.024Z,3.30
2023-01-25T16:41:38.643Z,3.30
2023-01-25T16:44:08.169Z,3.30
2023-01-25T16:46:36.223Z,3.30
2023-01-25T16:49:06.735Z,3.20
2023-01-25T16:51:34.897Z,3.30
2023-01-25T16:54:02.882Z,3.30
2023-01-25T16:56:33.710Z,3.30
2023-01-25T16:59:03.838Z,3.40
2023-01-25T17:01:33.988Z,3.40
2023-01-25T17:04:02.107Z,3.30
2023-01-25T17:06:31.943Z,3.30
2023-01-25T17:09:12.452Z,3.30
2023-01-25T17:11:41.273Z,3.30
2023-01-25T17:14:13.554Z,3.20
2023-01-25T17:16:44.942Z,3.20
2023-01-25T17:19:15.141Z,3.20
2023-01-25T17:21:43.209Z,3.20
2023-01-25T17:24:14.452Z,3.30
2023-01-25T17:26:42.866Z,3.40
2023-01-25T17:29:11.219Z,3.40
2023-01-25T17:31:41.212Z,3.50
2023-01-25T17:34:15.888Z,3.60
2023-01-25T17:36:44.630Z,3.60
2023-01-25T17:39:15.361Z,3.50
2023-01-25T17:41:43.724Z,3.50
2023-01-25T17:44:12.039Z,3.60
2023-01-25T17:46:40.248Z,3.50
2023-01-25T17:49:13.363Z,3.30
2023-01-25T17:51:41.397Z,3.30
2023-01-25T17:54:09.488Z,3.20
2023-01-25T17:56:39.534Z,3.30
2023-01-25T17:59:11.331Z,3.30
2023-01-25T18:01:42.630Z,3.20
2023-01-25T18:04:13.186Z,3.10
2023-01-25T18:06:41.433Z,3.00
2023-01-25T18:09:10.147Z,2.90
2023-01-25T18:11:40.306Z,2.90
2023-01-25T18:14:10.959Z,2.90
2023-01-25T18:16:40.459Z,2.80
2023-01-25T18:19:09.293Z,2.70
2023-01-25T18:21:40.628Z,2.70
2023-01-25T18:24:25.865Z,2.70
2023-01-25T18:26:59.960Z,2.70
2023-01-25T18:29:55.880Z,2.60
2023-01-25T18:32:24.308Z,2.50
2023-01-25T18:34:52.390Z,2.60
2023-01-25T18:37:23.338Z,2.50
2023-01-25T18:39:53.015Z,2.50
2023-01-25T18:42:22.087Z,2.50
2023-01-25T18:44:50.221Z,2.50
2023-01-25T18:47:19.627Z,2.60
2023-01-25T18:49:49.137Z,2.70
2023-01-25T18:52:18.595Z,2.70
2023-01-25T18:54:48.489Z,2.60
2023-01-25T18:57:17.116Z,2.70
2023-01-25T18:59:45.239Z,2.70
2023-01-25T19:02:14.509Z,2.70
2023-01-25T19:04:42.578Z,2.70
2023-01-25T19:07:10.580Z,2.80
2023-01-25T19:09:38.587Z,2.70
2023-01-25T19:12:08.365Z,2.60
2023-01-25T19:14:36.324Z,2.60
2023-01-25T19:17:04.309Z,2.60
2023-01-25T19:19:33.966Z,2.50
2023-01-25T19:22:02.439Z,2.50
2023-01-25T19:24:30.890Z,2.50
2023-01-25T19:26:58.955Z,2.50
2023-01-25T19:29:28.401Z,2.60
2023-01-25T19:31:57.000Z,2.70
2023-01-25T19:34:25.420Z,2.80
2023-01-25T19:36:53.960Z,2.70
2023-01-25T19:39:22.044Z,2.80
2023-01-25T19:41:52.975Z,2.90
2023-01-25T19:44:21.171Z,3.00
2023-01-25T19:46:50.614Z,3.00
2023-01-25T19:49:18.830Z,3.00
2023-01-25T19:51:52.764Z,2.90
2023-01-25T19:54:21.799Z,2.90
2023-01-25T19:56:50.877Z,2.90
2023-01-25T19:59:20.542Z,2.90
2023-01-25T20:01:50.248Z,2.90
2023-01-25T20:04:20.714Z,2.90
2023-01-25T20:06:49.672Z,3.00
2023-01-25T20:09:19.997Z,2.90
2023-01-25T20:11:48.407Z,2.80
2023-01-25T20:14:16.732Z,2.70
2023-01-25T20:16:45.020Z,2.60
2023-01-25T20:19:14.452Z,2.60
2023-01-25T20:21:42.495Z,2.70
2023-01-25T20:24:10.999Z,2.50
2023-01-25T20:26:42.654Z,2.40
2023-01-25T20:29:11.679Z,2.40
2023-01-25T20:31:41.763Z,2.40
2023-01-25T20:34:12.629Z,2.40
2023-01-25T20:36:44.940Z,2.40
2023-01-25T20:39:14.585Z,2.40
2023-01-25T20:41:42.728Z,2.50
2023-01-25T20:44:12.426Z,2.40
2023-01-25T20:46:42.827Z,2.40
2023-01-25T20:49:15.696Z,2.50
2023-01-25T20:51:45.967Z,2.60
2023-01-25T20:54:14.200Z,2.50
2023-01-25T20:56:42.895Z,2.50
2023-01-25T20:59:11.085Z,2.60
2023-01-25T21:01:39.275Z,2.50
2023-01-25T21:04:09.573Z,2.50
2023-01-25T21:06:38.720Z,2.60
2023-01-25T21:09:08.237Z,2.50
2023-01-25T21:11:36.322Z,2.50
2023-01-25T21:14:04.568Z,2.40
2023-01-25T21:16:32.686Z,2.40
2023-01-25T21:19:05.449Z,2.50
2023-01-25T21:21:34.813Z,2.60
2023-01-25T21:24:05.214Z,2.50
2023-01-25T21:26:37.180Z,2.50
2023-01-25T21:29:06.486Z,2.50
2023-01-25T21:31:36.759Z,2.40
2023-01-25T21:34:06.525Z,2.30
2023-01-25T21:36:34.795Z,2.20
2023-01-25T21:39:03.182Z,2.20
2023-01-25T21:41:33.496Z,2.10
2023-01-25T21:44:21.150Z,2.20
2023-01-25T21:47:16.229Z,2.30
2023-01-25T21:49:55.018Z,2.20
2023-01-25T21:52:23.049Z,2.20
2023-01-25T21:54:51.080Z,2.10
2023-01-25T21:57:19.040Z,2.10
2023-01-25T21:59:48.893Z,2.10
2023-01-25T22:02:17.176Z,2.10
2023-01-25T22:04:45.288Z,2.20
2023-01-25T22:07:13.321Z,2.30
2023-01-25T22:09:41.366Z,2.10
2023-01-25T22:12:09.483Z,2.10
2023-01-25T22:14:37.451Z,2.10
2023-01-25T22:17:06.876Z,2.20
2023-01-25T22:19:34.897Z,2.20
2023-01-25T22:22:03.066Z,2.20
2023-01-25T22:24:31.097Z,2.10
2023-01-25T22:27:05.453Z,2.20
2023-01-25T22:29:34.080Z,2.20
2023-01-25T22:32:02.407Z,2.20
2023-01-25T22:34:31.913Z,2.30
2023-01-25T22:36:59.885Z,2.30
2023-01-25T22:39:27.902Z,2.30
2023-01-25T22:41:56.423Z,2.20
2023-01-25T22:44:24.433Z,2.20
2023-01-25T22:46:53.684Z,2.20
2023-01-25T22:49:21.652Z,2.30
2023-01-25T22:51:51.033Z,2.30
2023-01-25T22:54:19.260Z,2.30
2023-01-25T22:56:47.304Z,2.20
2023-01-25T22:59:18.753Z,2.20
2023-01-25T23:01:47.050Z,2.20
2023-01-25T23:04:15.098Z,2.10
2023-01-25T23:06:43.123Z,2.00
2023-01-25T23:09:12.706Z,1.90
2023-01-25T23:11:40.800Z,1.80
2023-01-25T23:14:29.601Z,1.80
2023-01-25T23:17:18.766Z,1.80
2023-01-25T23:19:45.850Z,1.80
2023-01-25T23:22:14.065Z,1.80
2023-01-25T23:24:43.620Z,1.80
2023-01-25T23:27:12.474Z,1.70
2023-01-25T23:29:40.450Z,1.70
2023-01-25T23:32:08.548Z,1.70
2023-01-25T23:34:39.448Z,1.60
2023-01-25T23:37:07.564Z,1.50
2023-01-25T23:39:35.602Z,1.60
2023-01-25T23:42:05.055Z,1.60
2023-01-25T23:44:33.053Z,1.60
2023-01-25T23:47:01.628Z,1.60
2023-01-25T23:49:29.655Z,1.50
2023-01-25T23:51:57.655Z,1.60
2023-01-25T23:54:26.908Z,1.50
2023-01-25T23:56:55.311Z,1.50
2023-01-25T23:59:24.659Z,1.60
